Ely Airport Yelland Field
KELY : now visible

Airfield :











YOU CAN JOIN US ON...

 
LOGIN :

Register | Disclaimer

   EN    FR    IT 

 









Legend :    VFR   Marginal VFR   IFR   Intensive IFR   Very Intensive IFR
Visi :
Ceiling :
>= 8 km
>= 3000ft
5 to 8 km
1000 to 3000 ft
1500m to 5 km
500 to 1000 ft
800 to 1500m
200 to 500 ft
< 800m
< 200 ft
Symbols :   Thunderstorms  Fog  Heavy snow  Heavy precipitations  Wind > 20 kt






- Airport Elevation : 6259 ft


KELY - Ely Yelland Field

CURRENT METAR :
  • 141953Z AUTO 18004KT 10SM CLR 29/M04 A3030 RMK AO2 SLP163 T02941044

EXPIRED METARs :
  • 141853Z AUTO VRB03KT 10SM CLR 29/M04 A3033 RMK AO2 SLP159 T02941044
  • 141753Z AUTO 11004KT 10SM CLR 29/M05 A3034 RMK AO2 SLP157 T02891050 10289 20056 58003

TAF KELY
Valid from the 14 at 18:00 until the 15 at 18:00 UTC


141720Z 1418/1518 33006KT P6SM SCT150 BKN200
FM150600 18008KT P6SM FEW150
KZLC FIR / North America



MET'MAP, your aeronautical weather chart ! - Copyright ORBIFLY December 2007 - Disclaimer

ORBIFLY MET'MAP TEAM :

Programming & Development : Alexandra Zaïnal
Concept & original design : Baudouin d'Aumeries
Assistance for programming : Marc-Olivier Méhu
Technical & hardware support : Manuel Goepfert

Contact : metmap@orbifly.com




SOURCES & CREDITS :

   NOAA       Earth
Advisory